Time;durP1;ratioP1;P1;durP2;ratioP2;P2;SDS_P1;SDS_P2;PMS_P1;PMS_P2;Temp;Humidity;BMP_temperature;BMP_pressure;BME280_temperature;BME280_humidity;BME280_pressure;Samples;Min_cycle;Max_cycle;Signal;HPM_P1;HPM_P2
2023/12/03 00:00:22;;;;;;;21.17;4.60;;;;;;;-143.21;45.11;71308.81;5025287;28;20293;-78
2023/12/03 00:02:50;;;;;;;21.70;3.90;;;;;;;-143.21;45.23;71308.81;5024950;28;20593;-79
2023/12/03 00:05:17;;;;;;;21.70;3.50;;;;;;;-143.21;45.39;71318.72;5018557;28;20211;-78
2023/12/03 00:07:46;;;;;;;20.30;3.73;;;;;;;-143.21;45.42;71320.69;5023457;28;20329;-78
2023/12/03 00:10:15;;;;;;;21.13;3.77;;;;;;;-143.21;45.50;71334.59;5020751;28;20300;-79
2023/12/03 00:12:42;;;;;;;14.57;3.70;;;;;;;-143.21;45.19;71330.63;5016059;28;20214;-79
2023/12/03 00:15:09;;;;;;;22.87;4.10;;;;;;;-143.21;45.28;71326.66;5022991;28;20234;-79
2023/12/03 00:17:41;;;;;;;19.37;3.70;;;;;;;-143.21;44.55;71320.69;5016896;28;20195;-78
2023/12/03 00:20:09;;;;;;;18.40;3.77;;;;;;;-143.21;44.72;71324.66;5024762;28;20666;-79
2023/12/03 00:22:35;;;;;;;19.73;3.90;;;;;;;-143.21;44.84;71320.69;5017630;28;20233;-78
2023/12/03 00:25:02;;;;;;;25.13;3.63;;;;;;;-143.21;44.82;71326.66;5020245;28;20211;-78
2023/12/03 00:27:29;;;;;;;15.57;3.60;;;;;;;-143.21;45.06;71328.63;5016849;28;20212;-77
2023/12/03 00:29:57;;;;;;;18.27;3.63;;;;;;;-143.21;44.73;71328.63;5015551;28;20206;-78
2023/12/03 00:32:23;;;;;;;20.97;3.93;;;;;;;-143.21;44.73;71328.63;5020468;28;20249;-77
2023/12/03 00:34:52;;;;;;;21.07;3.67;;;;;;;-143.21;44.74;71330.63;5029808;28;20222;-78
2023/12/03 00:37:18;;;;;;;24.20;3.73;;;;;;;-143.21;44.78;71320.69;5022805;28;20218;-79
2023/12/03 00:39:45;;;;;;;17.47;3.10;;;;;;;-143.21;44.59;71322.69;5026974;28;20252;-78
2023/12/03 00:42:12;;;;;;;20.97;3.60;;;;;;;-143.21;44.16;71318.72;5022730;28;20294;-78
2023/12/03 00:44:39;;;;;;;20.77;3.60;;;;;;;-143.21;44.89;71322.69;5011873;28;20199;-78
2023/12/03 00:47:06;;;;;;;19.50;3.30;;;;;;;-143.21;44.67;71332.59;5012410;28;20589;-77
2023/12/03 00:49:32;;;;;;;17.53;3.07;;;;;;;-143.21;44.69;71332.59;5030213;28;20639;-77
2023/12/03 00:52:01;;;;;;;20.70;3.90;;;;;;;-143.21;44.73;71342.50;5022990;28;20226;-78
2023/12/03 00:54:27;;;;;;;16.77;4.60;;;;;;;-143.21;44.94;71332.59;5025504;28;20240;-78
2023/12/03 00:56:53;;;;;;;21.90;4.87;;;;;;;-143.21;44.95;71334.59;5028305;28;20661;-78
2023/12/03 00:59:20;;;;;;;20.27;3.67;;;;;;;-143.21;44.61;71326.66;5025986;28;20207;-78
2023/12/03 01:01:47;;;;;;;16.93;3.13;;;;;;;-143.21;44.68;71326.66;5026383;28;20203;-79
2023/12/03 01:04:13;;;;;;;18.97;3.50;;;;;;;-143.21;44.85;71336.56;5026129;28;20202;-78
2023/12/03 01:06:40;;;;;;;19.83;4.50;;;;;;;-143.21;45.00;71350.44;5021657;28;20231;-76
2023/12/03 01:09:09;;;;;;;28.87;4.30;;;;;;;-143.21;45.06;71334.59;5026215;28;20210;-77
2023/12/03 01:11:40;;;;;;;24.17;4.07;;;;;;;-143.21;45.13;71344.50;5023052;28;20203;-77
2023/12/03 01:14:07;;;;;;;12.90;4.00;;;;;;;-143.21;45.39;71340.53;5022739;28;20313;-77
2023/12/03 01:16:34;;;;;;;21.67;3.97;;;;;;;-143.21;45.33;71338.53;5026837;28;20621;-78
2023/12/03 01:19:01;;;;;;;22.13;3.77;;;;;;;-143.21;45.29;71332.59;5021255;28;20712;-79
2023/12/03 01:21:27;;;;;;;17.63;3.80;;;;;;;-143.21;45.28;71334.59;5025131;28;20210;-77
2023/12/03 01:23:54;;;;;;;21.87;3.80;;;;;;;-143.21;45.18;71332.59;5020104;28;20199;-77
2023/12/03 01:26:22;;;;;;;20.23;3.40;;;;;;;-143.21;45.30;71334.59;5025785;28;20214;-77
2023/12/03 01:28:49;;;;;;;19.73;3.70;;;;;;;-143.21;45.07;71340.53;5027872;28;20205;-77
2023/12/03 01:31:16;;;;;;;20.37;3.43;;;;;;;-143.21;45.20;71338.53;5013798;28;20677;-77
2023/12/03 01:33:43;;;;;;;31.57;3.80;;;;;;;-143.21;45.08;71332.59;5018494;28;20226;-78
2023/12/03 01:36:10;;;;;;;24.13;3.50;;;;;;;-143.21;45.08;71324.66;5024917;28;20203;-78
2023/12/03 01:38:37;;;;;;;18.80;3.57;;;;;;;-143.21;44.95;71320.69;5024460;28;20215;-77
2023/12/03 01:41:04;;;;;;;13.93;3.70;;;;;;;-143.21;45.11;71324.66;5028160;28;20207;-77
2023/12/03 01:43:32;;;;;;;17.07;3.43;;;;;;;-143.21;45.21;71334.59;5025395;28;20206;-78
2023/12/03 01:45:59;;;;;;;24.30;4.07;;;;;;;-143.21;45.37;71330.63;5025207;28;20218;-78
2023/12/03 01:48:26;;;;;;;16.57;3.23;;;;;;;-143.21;45.29;71318.72;5026295;28;20218;-78
2023/12/03 01:50:53;;;;;;;23.30;4.03;;;;;;;-143.21;45.58;71324.66;5028219;28;20234;-78
2023/12/03 01:53:20;;;;;;;20.67;3.83;;;;;;;-143.21;45.71;71320.69;5021093;28;20594;-78
2023/12/03 01:55:47;;;;;;;21.30;3.80;;;;;;;-143.21;45.72;71324.66;5025250;28;20218;-78
2023/12/03 01:58:14;;;;;;;23.53;4.60;;;;;;;-143.21;45.83;71334.59;5025341;28;20206;-77
2023/12/03 02:00:42;;;;;;;19.33;3.77;;;;;;;-143.21;46.17;71332.59;5023119;28;20196;-77
2023/12/03 02:03:09;;;;;;;24.23;4.43;;;;;;;-143.21;46.22;71332.59;5021344;28;20229;-79
2023/12/03 02:05:36;;;;;;;26.53;4.10;;;;;;;-143.21;46.15;71342.50;5022352;28;20206;-78
2023/12/03 02:08:03;;;;;;;18.10;4.10;;;;;;;-143.21;46.66;71332.59;5021786;28;20265;-77
2023/12/03 02:10:30;;;;;;;15.77;3.10;;;;;;;-143.21;46.45;71330.63;5024926;28;20293;-77
2023/12/03 02:12:58;;;;;;;20.13;3.50;;;;;;;-143.21;46.37;71334.59;5020941;28;20218;-78
2023/12/03 02:15:25;;;;;;;15.40;3.03;;;;;;;-143.21;46.36;71324.66;5025287;28;20231;-78
2023/12/03 02:17:53;;;;;;;27.33;4.30;;;;;;;-143.21;46.04;71320.69;5025062;28;20566;-78
2023/12/03 02:20:20;;;;;;;24.10;3.97;;;;;;;-143.21;46.52;71330.63;5025784;28;20209;-78
2023/12/03 02:23:00;;;;;;;19.97;4.40;;;;;;;-143.21;46.58;71322.69;5026378;28;20206;-79
2023/12/03 02:25:27;;;;;;;23.83;3.80;;;;;;;-143.21;46.63;71328.63;5027339;28;20287;-78
2023/12/03 02:27:53;;;;;;;21.37;3.93;;;;;;;-143.21;46.33;71324.66;5022601;28;20203;-78
2023/12/03 02:30:20;;;;;;;23.60;4.23;;;;;;;-143.21;46.66;71322.69;5025434;28;20202;-78
2023/12/03 02:32:48;;;;;;;18.23;3.23;;;;;;;-143.21;46.56;71336.56;5022680;28;20207;-78
2023/12/03 02:35:15;;;;;;;21.37;3.70;;;;;;;-143.21;46.37;71332.59;5021512;28;20234;-78
2023/12/03 02:37:42;;;;;;;22.57;3.77;;;;;;;-143.21;46.34;71324.66;5017007;28;20254;-78
2023/12/03 02:40:11;;;;;;;26.20;3.97;;;;;;;-143.21;46.56;71330.63;5021548;28;20202;-77
2023/12/03 02:42:37;;;;;;;20.43;3.83;;;;;;;-143.21;46.54;71326.66;5022350;28;20583;-79
2023/12/03 02:45:06;;;;;;;19.53;4.10;;;;;;;-143.21;46.69;71334.59;5026003;28;20206;-78
2023/12/03 02:47:32;;;;;;;16.53;3.47;;;;;;;-143.21;46.79;71340.53;5027351;28;20245;-79
2023/12/03 02:49:59;;;;;;;17.97;4.50;;;;;;;-143.21;46.78;71346.47;5024637;28;20704;-78
2023/12/03 02:52:26;;;;;;;26.20;3.77;;;;;;;-143.21;46.88;71346.47;5024993;28;20210;-78
2023/12/03 02:54:53;;;;;;;20.77;4.23;;;;;;;-143.21;46.76;71352.44;5023446;28;20701;-78
2023/12/03 02:57:21;;;;;;;19.03;3.63;;;;;;;-143.21;47.11;71354.41;5027781;28;20207;-78
2023/12/03 02:59:48;;;;;;;27.33;4.37;;;;;;;-143.21;47.17;71366.31;5024247;28;20210;-77
2023/12/03 03:02:15;;;;;;;36.53;4.53;;;;;;;-143.21;47.31;71356.38;5025059;28;20198;-79
2023/12/03 03:04:42;;;;;;;19.40;3.90;;;;;;;-143.21;46.76;71366.31;5022151;28;20769;-78
2023/12/03 03:07:08;;;;;;;23.67;4.13;;;;;;;-143.21;47.40;71364.31;5026512;28;20235;-78
2023/12/03 03:09:35;;;;;;;17.23;3.63;;;;;;;-143.21;47.54;71374.22;5026909;28;20202;-77
2023/12/03 03:12:02;;;;;;;24.80;4.40;;;;;;;-143.21;47.76;71382.16;5025763;28;20213;-78
2023/12/03 03:14:30;;;;;;;25.17;4.10;;;;;;;-143.21;47.43;71386.13;5024794;28;20206;-78
2023/12/03 03:16:57;;;;;;;23.17;4.13;;;;;;;-143.21;47.40;71378.19;5023380;28;21167;-77
2023/12/03 03:19:24;;;;;;;22.83;4.53;;;;;;;-143.21;47.65;71380.19;5027313;28;20593;-78
2023/12/03 03:21:51;;;;;;;20.57;3.63;;;;;;;-143.21;47.66;71376.22;5023925;28;20203;-77
2023/12/03 03:24:17;;;;;;;20.87;4.40;;;;;;;-143.21;47.42;71376.22;5024167;28;20203;-78
2023/12/03 03:26:44;;;;;;;22.13;3.80;;;;;;;-143.21;47.78;71382.16;5023934;28;20305;-78
2023/12/03 03:29:11;;;;;;;25.37;4.60;;;;;;;-143.21;47.59;71390.09;5026872;28;20207;-77
2023/12/03 03:31:39;;;;;;;22.57;4.07;;;;;;;-143.21;47.84;71403.97;5024719;28;20203;-79
2023/12/03 03:34:06;;;;;;;22.03;4.43;;;;;;;-143.21;47.87;71407.94;5024702;28;20206;-78
2023/12/03 03:36:33;;;;;;;28.90;5.23;;;;;;;-143.21;48.08;71411.91;5019375;28;20602;-77
2023/12/03 03:39:00;;;;;;;21.47;4.37;;;;;;;-143.21;48.26;71423.78;5021421;28;20894;-78
2023/12/03 03:41:27;;;;;;;24.47;4.40;;;;;;;-143.21;48.85;71441.63;5026171;28;20237;-77
2023/12/03 03:43:54;;;;;;;28.47;4.27;;;;;;;-143.21;48.84;71455.53;5024606;28;20229;-78
2023/12/03 03:46:21;;;;;;;18.40;4.10;;;;;;;-143.21;49.47;71467.41;5024070;28;20214;-77
2023/12/03 03:48:50;;;;;;;18.83;4.03;;;;;;;-143.21;50.00;71473.38;5023098;28;20203;-78
2023/12/03 03:51:16;;;;;;;22.83;4.03;;;;;;;-143.21;50.19;71495.19;5027608;28;20206;-78
2023/12/03 03:53:42;;;;;;;22.80;4.60;;;;;;;-143.21;50.39;71507.06;5024527;28;20345;-78
2023/12/03 03:56:11;;;;;;;24.57;3.87;;;;;;;-143.21;50.36;71522.94;5023929;28;20237;-79
2023/12/03 03:58:38;;;;;;;18.50;3.67;;;;;;;-143.21;50.69;71544.75;5023275;28;20725;-78
2023/12/03 04:01:05;;;;;;;18.73;3.80;;;;;;;-143.21;51.12;71564.56;5025491;28;20218;-79
2023/12/03 04:03:32;;;;;;;19.30;4.47;;;;;;;-143.21;51.98;71590.34;5025764;28;20260;-78
2023/12/03 04:06:02;;;;;;;20.43;3.63;;;;;;;-143.21;52.33;71604.22;5023354;28;20232;-78
2023/12/03 04:08:28;;;;;;;20.53;4.03;;;;;;;-143.21;52.46;71608.19;5024005;28;20218;-78
2023/12/03 04:10:55;;;;;;;19.50;3.63;;;;;;;-143.21;52.70;71618.09;5023888;28;20210;-77
2023/12/03 04:13:22;;;;;;;15.67;3.67;;;;;;;-143.21;52.62;71631.97;5026881;28;20206;-78
2023/12/03 04:15:49;;;;;;;19.53;4.27;;;;;;;-143.21;52.85;71630.00;5023418;28;20222;-79
2023/12/03 04:18:16;;;;;;;14.70;3.90;;;;;;;-143.21;53.39;71647.84;5024195;28;20207;-77
2023/12/03 04:20:42;;;;;;;17.73;4.03;;;;;;;-143.21;53.38;71643.88;5023379;28;20264;-77
2023/12/03 04:23:11;;;;;;;15.67;3.63;;;;;;;-143.21;53.57;71647.84;5022124;28;20214;-77
2023/12/03 04:25:37;;;;;;;23.23;3.60;;;;;;;-143.21;53.49;71653.78;5024901;28;20549;-77
2023/12/03 04:28:05;;;;;;;27.77;4.17;;;;;;;-143.21;53.61;71667.66;5022618;28;20544;-78
2023/12/03 04:30:32;;;;;;;20.97;4.20;;;;;;;-143.21;53.75;71663.72;5023717;28;20199;-77
2023/12/03 04:32:59;;;;;;;20.53;4.03;;;;;;;-143.21;53.51;71669.66;5023695;28;20220;-78
2023/12/03 04:35:26;;;;;;;17.43;4.83;;;;;;;-143.21;53.56;71667.66;5026488;28;20227;-77
2023/12/03 04:37:53;;;;;;;29.27;4.97;;;;;;;-143.21;54.09;71673.63;5023466;28;20218;-77
2023/12/03 04:40:21;;;;;;;17.77;4.03;;;;;;;-143.21;55.02;71683.53;5023394;28;20213;-76
2023/12/03 04:42:48;;;;;;;17.97;3.40;;;;;;;-143.21;55.79;71693.44;5022641;28;20210;-77
2023/12/03 04:45:14;;;;;;;15.10;3.90;;;;;;;-143.21;56.16;71689.47;5025514;28;20574;-78
2023/12/03 04:47:41;;;;;;;19.73;3.63;;;;;;;-143.21;56.23;71701.38;5024460;28;20211;-77
2023/12/03 04:50:08;;;;;;;18.23;3.60;;;;;;;-143.21;57.74;71733.09;5022007;28;20249;-78
2023/12/03 04:52:35;;;;;;;16.93;3.53;;;;;;;-143.21;58.74;71745.00;5022581;28;20203;-78
2023/12/03 04:55:02;;;;;;;20.07;3.60;;;;;;;-143.21;59.09;71756.91;5027517;28;20210;-77
2023/12/03 04:57:30;;;;;;;17.70;4.17;;;;;;;-143.21;59.15;71772.75;5029575;28;20273;-77
2023/12/03 04:59:57;;;;;;;16.97;3.97;;;;;;;-143.21;59.36;71798.53;5026641;28;20218;-80
2023/12/03 05:02:24;;;;;;;17.53;4.30;;;;;;;-143.21;60.23;71818.38;5029893;28;20534;-77
2023/12/03 05:04:51;;;;;;;16.87;3.67;;;;;;;-143.21;60.98;71830.25;5026243;28;20218;-78
2023/12/03 05:07:17;;;;;;;17.07;3.57;;;;;;;-143.21;61.66;71836.22;5029719;28;20564;-77
2023/12/03 05:09:44;;;;;;;22.23;4.40;;;;;;;-143.21;62.63;71846.13;5026806;28;20627;-77
2023/12/03 05:12:11;;;;;;;14.07;4.60;;;;;;;-143.21;64.74;71891.72;5026652;28;20214;-77
2023/12/03 05:14:39;;;;;;;19.37;4.83;;;;;;;-143.21;66.72;71927.44;5027202;28;20202;-76
2023/12/03 05:17:06;;;;;;;10.20;4.40;;;;;;;-143.21;67.90;71941.31;5027816;28;20222;-77
2023/12/03 05:19:33;;;;;;;19.53;5.20;;;;;;;-143.21;69.67;71959.16;5029165;28;20206;-77
2023/12/03 05:21:59;;;;;;;19.67;5.23;;;;;;;-143.21;70.05;71961.13;5026065;28;20214;-77
2023/12/03 05:24:26;;;;;;;19.97;4.93;;;;;;;-143.21;70.57;71961.13;5026350;28;20217;-76
2023/12/03 05:26:53;;;;;;;22.80;4.73;;;;;;;-143.21;70.56;71941.31;5025214;28;20202;-76
2023/12/03 05:29:21;;;;;;;21.47;4.30;;;;;;;-143.21;70.64;71943.28;5029120;28;20293;-77
2023/12/03 05:31:50;;;;;;;15.03;4.60;;;;;;;-143.21;70.68;71949.25;5025733;28;20199;-77
2023/12/03 05:34:16;;;;;;;16.83;4.73;;;;;;;-143.21;70.10;71929.41;5026412;28;20218;-77
2023/12/03 05:36:43;;;;;;;16.93;4.10;;;;;;;-143.21;69.47;71929.41;5024537;28;20226;-77
2023/12/03 05:39:10;;;;;;;16.43;5.50;;;;;;;-143.21;69.41;71923.47;5027720;28;20584;-77
2023/12/03 05:41:39;;;;;;;25.17;5.93;;;;;;;-143.21;69.72;71927.44;5027771;28;20289;-77
2023/12/03 05:44:06;;;;;;;14.53;5.80;;;;;;;-143.21;70.06;71941.31;5026037;28;20213;-77
2023/12/03 05:46:33;;;;;;;24.50;5.93;;;;;;;-143.21;70.60;71949.25;5025517;28;20199;-76
2023/12/03 05:49:01;;;;;;;18.27;4.97;;;;;;;-143.21;70.56;71943.28;5025811;28;20221;-78
2023/12/03 05:51:27;;;;;;;13.63;4.13;;;;;;;-143.21;70.51;71943.28;5028748;28;20214;-77
2023/12/03 05:53:54;;;;;;;15.87;4.47;;;;;;;-143.21;70.52;71939.31;5025288;28;20206;-78
2023/12/03 05:56:22;;;;;;;25.60;5.10;;;;;;;-143.21;69.93;71939.31;5025637;28;20229;-76
2023/12/03 05:58:48;;;;;;;16.40;4.53;;;;;;;-143.21;69.97;71941.31;5025519;28;20650;-77
2023/12/03 06:01:23;;;;;;;15.13;4.73;;;;;;;-143.21;70.54;71939.31;5027584;28;20734;-79
2023/12/03 06:03:49;;;;;;;18.40;4.80;;;;;;;-143.21;71.00;71931.38;5026935;28;20585;-78
2023/12/03 06:06:18;;;;;;;23.60;5.33;;;;;;;-143.21;70.80;71931.38;5025460;28;20198;-79
2023/12/03 06:08:45;;;;;;;13.67;4.70;;;;;;;-143.21;71.13;71935.34;5025131;28;20203;-77
2023/12/03 06:11:12;;;;;;;15.03;5.13;;;;;;;-143.21;71.01;71933.38;5025123;28;20217;-79
2023/12/03 06:13:39;;;;;;;15.33;4.93;;;;;;;-143.21;71.61;71939.31;5027912;28;20203;-78
2023/12/03 06:16:07;;;;;;;18.57;5.23;;;;;;;-143.21;71.42;71935.34;5025535;28;20237;-78
2023/12/03 06:18:34;;;;;;;16.53;4.70;;;;;;;-143.21;72.20;71927.44;5025657;28;20596;-78
2023/12/03 06:21:02;;;;;;;22.20;6.00;;;;;;;-143.21;70.78;71927.44;5025625;28;20605;-79
2023/12/03 06:23:30;;;;;;;17.57;5.90;;;;;;;-143.21;70.28;71933.38;5026187;28;20218;-79
2023/12/03 06:25:57;;;;;;;18.70;5.13;;;;;;;-143.21;69.84;71939.31;5026156;28;20217;-78
2023/12/03 06:28:24;;;;;;;14.37;4.83;;;;;;;-143.21;69.39;71945.28;5025506;28;20286;-78
2023/12/03 06:30:51;;;;;;;18.53;4.60;;;;;;;-143.21;69.34;71951.22;5024716;28;20310;-78
2023/12/03 06:33:19;;;;;;;11.77;4.67;;;;;;;-143.21;69.32;71951.22;5024897;28;20210;-78
2023/12/03 06:35:46;;;;;;;19.90;4.83;;;;;;;-143.21;69.50;71949.25;5025490;28;20230;-78
2023/12/03 06:38:13;;;;;;;20.03;6.53;;;;;;;-143.21;69.19;71939.31;5025049;28;20257;-78
2023/12/03 06:40:42;;;;;;;24.23;7.07;;;;;;;-143.21;69.04;71943.28;5025311;28;20207;-79
2023/12/03 06:43:09;;;;;;;29.83;7.70;;;;;;;-143.21;68.81;71943.28;5025210;28;20210;-79
2023/12/03 06:45:36;;;;;;;27.97;13.07;;;;;;;-143.21;68.34;71947.25;5023947;28;20211;-78
2023/12/03 06:48:03;;;;;;;38.37;13.97;;;;;;;-143.21;68.31;71947.25;5025992;28;20737;-77
2023/12/03 06:50:30;;;;;;;39.20;16.53;;;;;;;-143.21;68.50;71949.25;5025302;28;20206;-78
2023/12/03 06:52:56;;;;;;;32.07;15.30;;;;;;;-143.21;69.16;71959.16;5024449;28;20221;-78
2023/12/03 06:55:23;;;;;;;24.10;10.00;;;;;;;-143.21;69.54;71963.13;5024928;28;20211;-77
2023/12/03 06:57:52;;;;;;;21.60;9.27;;;;;;;-143.21;70.07;71967.09;5027471;28;20222;-77
2023/12/03 07:00:20;;;;;;;26.47;11.30;;;;;;;-143.21;70.84;71971.06;5025037;28;20202;-77
2023/12/03 07:02:47;;;;;;;39.13;21.43;;;;;;;-143.21;72.72;71986.91;5024251;28;20712;-78
2023/12/03 07:05:13;;;;;;;46.40;24.23;;;;;;;-143.21;73.41;71992.88;5024385;28;20221;-77
2023/12/03 07:07:40;;;;;;;47.23;25.00;;;;;;;-143.21;74.44;72004.75;5027012;28;20237;-78
2023/12/03 07:10:08;;;;;;;48.30;24.27;;;;;;;-143.21;75.12;72006.75;5025491;28;20239;-79
2023/12/03 07:12:35;;;;;;;45.47;23.47;;;;;;;-143.21;75.84;72010.72;5025046;28;20214;-78
2023/12/03 07:15:04;;;;;;;50.03;21.67;;;;;;;-143.21;77.36;72044.41;5023989;28;20214;-79
2023/12/03 07:17:31;;;;;;;43.33;19.43;;;;;;;-143.21;78.23;72056.31;5024715;28;20261;-78
2023/12/03 07:19:57;;;;;;;37.53;17.67;;;;;;;-143.21;79.20;72058.31;5026144;28;20206;-78
2023/12/03 07:22:24;;;;;;;34.03;14.73;;;;;;;-143.21;80.05;72062.25;5024796;28;20211;-78
2023/12/03 07:24:51;;;;;;;30.20;15.17;;;;;;;-143.21;80.80;72052.34;5023414;28;20197;-78
2023/12/03 07:27:18;;;;;;;30.50;13.07;;;;;;;-143.21;80.86;72058.31;5016750;28;20673;-78
2023/12/03 07:29:45;;;;;;;23.90;10.17;;;;;;;-143.21;81.63;72064.25;5020697;28;20206;-77
2023/12/03 07:32:13;;;;;;;28.73;9.73;;;;;;;-143.21;81.89;72066.22;5017849;28;20199;-78
2023/12/03 07:34:43;;;;;;;25.97;10.03;;;;;;;-143.21;82.29;72058.31;5016695;28;20211;-78
2023/12/03 07:37:10;;;;;;;29.80;11.20;;;;;;;-143.21;82.45;72062.25;5016188;28;20669;-79
2023/12/03 07:39:38;;;;;;;28.77;12.30;;;;;;;-143.21;82.84;72068.22;5017461;28;20210;-77
2023/12/03 07:42:06;;;;;;;21.50;10.17;;;;;;;-143.21;82.43;72090.03;5016801;28;20297;-79
2023/12/03 07:44:33;;;;;;;19.60;9.37;;;;;;;-143.21;82.90;72127.72;5017066;28;20198;-78
2023/12/03 07:47:00;;;;;;;22.80;9.70;;;;;;;-143.21;83.20;72137.63;5017130;28;20284;-78
2023/12/03 07:49:28;;;;;;;18.87;8.17;;;;;;;-143.21;83.54;72153.47;5017619;28;20222;-78
2023/12/03 07:51:55;;;;;;;17.73;7.77;;;;;;;-143.21;83.62;72175.31;5017507;28;20218;-78
2023/12/03 07:54:22;;;;;;;17.90;7.60;;;;;;;-143.21;83.75;72209.00;5019728;28;20286;-77
2023/12/03 07:56:49;;;;;;;15.30;8.07;;;;;;;-143.21;84.79;72232.81;5014901;28;20211;-77
2023/12/03 07:59:15;;;;;;;12.93;7.33;;;;;;;-143.21;84.91;72282.38;5016735;28;20226;-77
2023/12/03 08:01:42;;;;;;;14.73;7.37;;;;;;;-143.21;85.59;72343.88;5018820;28;20218;-78
2023/12/03 08:04:09;;;;;;;15.60;8.00;;;;;;;-143.21;86.94;72385.50;5014523;28;20677;-78
2023/12/03 08:06:37;;;;;;;27.43;10.23;;;;;;;-143.21;88.00;72383.53;5018128;28;20218;-76
2023/12/03 08:09:04;;;;;;;18.97;10.33;;;;;;;-143.21;88.65;72397.41;5016594;28;20221;-76
2023/12/03 08:11:32;;;;;;;23.00;10.90;;;;;;;-143.21;88.29;72421.22;5016277;28;20747;-76
2023/12/03 08:13:58;;;;;;;18.63;9.70;;;;;;;-143.21;88.85;72454.91;5018948;28;20206;-76
2023/12/03 08:16:26;;;;;;;14.13;9.00;;;;;;;-143.21;88.82;72490.63;5017508;28;20225;-78
2023/12/03 08:18:52;;;;;;;11.93;8.17;;;;;;;-143.21;89.76;72502.53;5013372;28;20202;-76
2023/12/03 08:21:19;;;;;;;16.03;9.57;;;;;;;-143.21;89.94;72534.25;5021022;28;20202;-78
2023/12/03 08:23:48;;;;;;;19.37;10.23;;;;;;;-143.21;89.64;72536.25;5023405;28;20297;-77
2023/12/03 08:26:15;;;;;;;18.93;10.47;;;;;;;-143.21;89.69;72558.06;5022244;28;20296;-77
2023/12/03 08:28:44;;;;;;;16.83;10.70;;;;;;;-143.21;89.74;72569.94;5005931;28;20203;-77
2023/12/03 08:31:11;;;;;;;16.70;11.03;;;;;;;-143.21;89.28;72595.75;5025158;28;20203;-78
2023/12/03 08:33:44;;;;;;;18.07;10.60;;;;;;;-143.21;89.12;72625.47;5025440;28;20964;-77
2023/12/03 08:36:17;;;;;;;17.70;10.93;;;;;;;-143.21;88.85;72613.59;5025618;28;20297;-77
2023/12/03 08:38:45;;;;;;;20.73;11.13;;;;;;;-143.21;88.61;72609.63;5025455;28;20202;-78
2023/12/03 08:41:13;;;;;;;18.07;10.63;;;;;;;-143.21;87.88;72631.44;5025200;28;20213;-77
2023/12/03 08:43:46;;;;;;;13.57;9.90;;;;;;;-143.21;87.53;72665.16;5024276;28;20209;-78
2023/12/03 08:46:13;;;;;;;17.13;10.47;;;;;;;-143.21;87.53;72665.16;5023495;28;20211;-77
2023/12/03 08:48:40;;;;;;;16.87;10.97;;;;;;;-143.21;87.03;72686.97;5022258;28;20199;-77
2023/12/03 08:51:08;;;;;;;21.73;11.30;;;;;;;-143.21;86.99;72702.84;5003822;28;20191;-79
2023/12/03 08:53:35;;;;;;;16.93;10.93;;;;;;;-143.21;88.15;72726.63;5021891;28;20198;-79
2023/12/03 08:56:02;;;;;;;19.27;11.30;;;;;;;-143.21;88.66;72732.59;5021053;28;20745;-77
2023/12/03 08:58:30;;;;;;;20.80;12.53;;;;;;;-143.21;88.72;72732.59;5021397;28;20230;-77
2023/12/03 09:00:57;;;;;;;20.47;12.90;;;;;;;-143.21;88.82;72744.50;5022051;28;20320;-78
2023/12/03 09:03:24;;;;;;;17.67;11.60;;;;;;;-143.21;89.21;72770.28;5018188;28;20195;-78
2023/12/03 09:05:51;;;;;;;20.10;12.10;;;;;;;-143.21;89.99;72766.31;5019529;28;20203;-77
2023/12/03 09:08:18;;;;;;;21.67;12.73;;;;;;;-143.21;90.29;72764.31;5020296;28;20234;-77
2023/12/03 09:10:44;;;;;;;23.83;13.57;;;;;;;-143.21;90.30;72750.44;5024207;28;20202;-79
2023/12/03 09:13:11;;;;;;;24.50;13.50;;;;;;;-143.21;89.92;72760.34;5022145;28;20198;-78
2023/12/03 09:15:39;;;;;;;21.70;13.67;;;;;;;-143.21;89.45;72744.50;5019955;28;20214;-77
2023/12/03 09:18:06;;;;;;;25.20;15.63;;;;;;;-143.21;89.48;72764.31;5024016;28;20250;-77
2023/12/03 09:20:34;;;;;;;20.73;14.43;;;;;;;-143.21;88.74;72780.19;5029092;28;20207;-82
2023/12/03 09:23:00;;;;;;;22.97;15.40;;;;;;;-143.21;89.16;72788.13;5026897;28;20215;-86
2023/12/03 09:25:27;;;;;;;24.00;14.47;;;;;;;-143.21;89.45;72807.97;5016117;28;20206;-80
2023/12/03 09:27:54;;;;;;;28.93;16.30;;;;;;;-143.21;88.98;72823.81;5025687;28;20206;-79
2023/12/03 09:30:21;;;;;;;20.60;13.10;;;;;;;-143.21;88.38;72829.78;5022818;28;20203;-76
2023/12/03 09:32:52;;;;;;;21.73;12.97;;;;;;;-143.21;89.20;72877.38;5020334;28;20203;-75
2023/12/03 09:35:19;;;;;;;21.77;14.10;;;;;;;-143.21;89.97;72889.28;5019883;28;20755;-75
2023/12/03 09:37:46;;;;;;;25.57;15.20;;;;;;;-143.21;90.74;72883.31;5021302;28;20234;-75
2023/12/03 09:40:13;;;;;;;21.63;13.73;;;;;;;-143.21;91.70;72873.41;5021907;28;20277;-75
2023/12/03 09:42:47;;;;;;;29.17;16.33;;;;;;;-143.21;91.78;72861.50;5026333;28;20210;-74
2023/12/03 09:45:17;;;;;;;28.13;16.67;;;;;;;-143.21;90.62;72871.44;5023446;28;20708;-75
2023/12/03 09:47:49;;;;;;;26.33;15.87;;;;;;;-143.21;90.76;72853.56;5023219;28;20194;-77
2023/12/03 09:50:17;;;;;;;25.20;15.63;;;;;;;-143.21;90.13;72881.34;5023121;28;20655;-76
2023/12/03 09:52:47;;;;;;;27.37;16.40;;;;;;;-143.21;89.55;72881.34;5023557;28;20590;-75
2023/12/03 09:55:15;;;;;;;25.47;15.87;;;;;;;-143.21;88.95;72871.44;5026301;28;20215;-76
2023/12/03 09:57:44;;;;;;;27.50;15.70;;;;;;;-143.21;88.64;72899.19;5023343;28;20246;-75
2023/12/03 10:00:12;;;;;;;24.13;13.80;;;;;;;-143.21;88.35;72919.03;5024084;28;20209;-76
2023/12/03 10:02:39;;;;;;;24.63;14.17;;;;;;;-143.21;88.31;72919.03;5020435;28;20697;-76
2023/12/03 10:05:06;;;;;;;20.80;12.90;;;;;;;-143.21;88.05;72950.78;5023486;28;20210;-75
2023/12/03 10:07:35;;;;;;;23.47;14.73;;;;;;;-143.21;87.89;72972.59;5012813;28;20228;-77
2023/12/03 10:10:04;;;;;;;21.80;13.70;;;;;;;-143.21;87.89;72986.47;5003007;28;20223;-76
2023/12/03 10:12:40;;;;;;;20.10;13.33;;;;;;;-143.21;89.05;73034.06;5003972;28;20295;-78
2023/12/03 10:15:09;;;;;;;17.20;10.23;;;;;;;-143.21;88.11;73055.91;5001455;28;20209;-78
2023/12/03 10:17:37;;;;;;;17.83;11.23;;;;;;;-143.21;88.65;73099.53;5004003;28;20749;-74
2023/12/03 10:20:24;;;;;;;21.23;13.10;;;;;;;-143.21;89.82;73127.31;5004240;28;20935;-76
2023/12/03 10:22:56;;;;;;;22.50;12.17;;;;;;;-143.21;90.10;73137.22;5003569;28;20220;-75
2023/12/03 10:25:30;;;;;;;23.37;14.03;;;;;;;-143.21;90.38;73145.16;5003535;28;20199;-76
2023/12/03 10:27:58;;;;;;;21.47;12.27;;;;;;;-143.21;90.03;73166.97;5005154;28;20210;-78
2023/12/03 10:30:25;;;;;;;22.17;10.77;;;;;;;-143.21;90.39;73172.94;5004092;28;20210;-77
2023/12/03 10:32:52;;;;;;;19.57;10.70;;;;;;;-143.21;90.58;73184.84;5004378;28;20216;-77
2023/12/03 10:35:20;;;;;;;21.27;12.07;;;;;;;-143.21;91.67;73180.88;5002199;28;20210;-77
2023/12/03 10:37:47;;;;;;;17.33;11.27;;;;;;;-143.21;90.81;73180.88;5002960;28;20297;-77
2023/12/03 10:40:16;;;;;;;23.10;11.30;;;;;;;-143.21;90.65;73194.75;5003818;28;20330;-77
2023/12/03 10:42:45;;;;;;;20.13;11.00;;;;;;;-143.21;90.55;73192.75;5005103;28;20206;-77
2023/12/03 10:45:13;;;;;;;20.07;12.50;;;;;;;-143.21;89.69;73178.88;5002331;28;20245;-77
2023/12/03 10:47:41;;;;;;;22.93;13.90;;;;;;;-143.21;89.29;73180.88;5002265;28;20326;-77
2023/12/03 10:50:09;;;;;;;23.60;13.07;;;;;;;-143.21;89.37;73196.72;5002250;28;20222;-77
2023/12/03 10:52:38;;;;;;;23.17;13.60;;;;;;;-143.21;90.48;73204.66;5002204;28;20599;-76
2023/12/03 10:55:06;;;;;;;19.03;11.90;;;;;;;-143.21;89.66;73208.63;5004819;28;20209;-77
2023/12/03 10:57:39;;;;;;;21.17;12.17;;;;;;;-143.21;89.92;73216.56;5002970;28;20235;-76
2023/12/03 11:00:09;;;;;;;19.30;11.53;;;;;;;-143.21;89.30;73224.50;5002852;28;20230;-78
2023/12/03 11:02:42;;;;;;;19.07;11.23;;;;;;;-143.21;90.08;73240.38;5003911;28;20661;-78
2023/12/03 11:05:15;;;;;;;24.33;12.80;;;;;;;-143.21;90.58;73242.34;5004385;28;20206;-77
2023/12/03 11:07:43;;;;;;;21.77;11.47;;;;;;;-143.21;91.39;73240.38;5012348;28;20241;-77